Time;durP1;ratioP1;P1;durP2;ratioP2;P2;SDS_P1;SDS_P2;PMS_P1;PMS_P2;Temp;Humidity;BMP_temperature;BMP_pressure;BME280_temperature;BME280_humidity;BME280_pressure;Samples;Min_cycle;Max_cycle;Signal;HPM_P1;HPM_P2
2023/03/23 00:01:00;;;;;;;3.92;3.22;;;;;;;7.00;49.72;99580.00;5032219;28;20048;-50
2023/03/23 00:03:28;;;;;;;4.13;2.83;;;;;;;7.05;49.77;99579.66;5031678;28;20364;-51
2023/03/23 00:05:59;;;;;;;4.85;2.90;;;;;;;7.07;49.90;99577.75;5032935;28;20021;-57
2023/03/23 00:08:26;;;;;;;4.38;3.10;;;;;;;7.06;49.87;99580.53;5032746;28;20036;-53
2023/03/23 00:10:56;;;;;;;4.63;3.15;;;;;;;7.03;49.99;99574.47;5032759;28;20032;-56
2023/03/23 00:13:23;;;;;;;4.28;3.00;;;;;;;7.07;50.12;99576.91;5032850;28;20039;-53
2023/03/23 00:15:49;;;;;;;4.03;3.03;;;;;;;7.03;49.58;99560.28;5032460;28;20061;-54
2023/03/23 00:18:21;;;;;;;3.75;2.67;;;;;;;7.10;50.39;99574.03;5032760;28;20471;-55
2023/03/23 00:20:53;;;;;;;5.30;3.15;;;;;;;7.12;50.13;99569.44;5032691;28;20456;-52
2023/03/23 00:23:20;;;;;;;3.83;3.05;;;;;;;7.11;50.26;99562.41;5022030;28;20489;-55
2023/03/23 00:25:56;;;;;;;4.13;3.10;;;;;;;7.15;50.14;99561.22;5013020;28;20034;-56
2023/03/23 00:28:24;;;;;;;3.60;2.90;;;;;;;7.12;49.88;99562.31;5012695;28;20408;-54
2023/03/23 00:31:01;;;;;;;5.35;3.05;;;;;;;7.20;49.78;99566.25;5012839;28;20033;-53
2023/03/23 00:33:29;;;;;;;4.35;2.80;;;;;;;7.12;50.18;99561.44;5012998;28;20117;-56
2023/03/23 00:35:55;;;;;;;3.72;3.13;;;;;;;7.08;50.29;99557.31;5012190;28;20048;-56
2023/03/23 00:38:22;;;;;;;4.20;3.05;;;;;;;7.09;50.17;99554.53;5011977;28;20132;-58
2023/03/23 00:40:49;;;;;;;3.83;3.22;;;;;;;7.11;49.80;99555.25;5028593;28;20486;-52
2023/03/23 00:43:17;;;;;;;3.88;3.00;;;;;;;7.14;50.29;99557.72;5032110;28;20364;-54
2023/03/23 00:45:44;;;;;;;3.75;2.80;;;;;;;7.14;50.27;99556.88;5032959;28;20026;-54
2023/03/23 00:48:12;;;;;;;3.10;2.80;;;;;;;7.17;49.93;99551.31;5032530;28;20104;-56
2023/03/23 00:50:39;;;;;;;3.67;2.75;;;;;;;7.18;49.90;99555.69;5032489;28;20087;-53
2023/03/23 00:53:05;;;;;;;4.05;3.17;;;;;;;7.14;49.90;99544.41;5032661;28;20025;-52
2023/03/23 00:55:30;;;;;;;4.90;3.17;;;;;;;7.15;50.17;99545.25;5035450;28;20037;-55
2023/03/23 00:57:56;;;;;;;4.65;3.10;;;;;;;7.15;49.95;99548.78;5033655;28;20029;-57
2023/03/23 01:00:22;;;;;;;4.55;3.55;;;;;;;7.15;49.83;99553.25;5035525;28;20037;-53
2023/03/23 01:02:51;;;;;;;5.35;3.28;;;;;;;7.11;50.10;99541.13;5036284;28;20132;-55
2023/03/23 01:05:16;;;;;;;6.03;3.47;;;;;;;7.01;50.45;99517.81;5036516;28;20030;-52
2023/03/23 01:07:44;;;;;;;3.78;3.25;;;;;;;7.20;50.38;99543.09;5035765;28;20055;-51
2023/03/23 01:10:12;;;;;;;4.63;3.20;;;;;;;7.20;50.41;99540.44;5035869;28;20029;-57
2023/03/23 01:12:39;;;;;;;4.00;3.10;;;;;;;7.15;50.03;99532.81;5036414;28;20082;-56
2023/03/23 01:15:05;;;;;;;5.85;3.35;;;;;;;7.19;49.80;99533.41;5036124;28;20855;-50
2023/03/23 01:17:31;;;;;;;3.33;2.92;;;;;;;7.18;50.20;99531.72;5034056;28;20448;-54
2023/03/23 01:19:57;;;;;;;3.47;3.17;;;;;;;7.18;50.29;99523.72;5035865;28;20086;-54
2023/03/23 01:22:22;;;;;;;3.72;3.25;;;;;;;7.16;50.44;99530.97;5034746;28;20021;-52
2023/03/23 01:24:48;;;;;;;4.10;3.00;;;;;;;7.23;50.24;99526.06;5035681;28;20060;-54
2023/03/23 01:27:14;;;;;;;3.15;2.83;;;;;;;7.23;50.04;99529.56;5022983;28;20109;-52
2023/03/23 01:29:39;;;;;;;4.25;3.10;;;;;;;7.19;50.48;99525.44;5014897;28;20196;-53
2023/03/23 01:32:05;;;;;;;4.18;2.90;;;;;;;7.24;50.32;99531.31;5016167;28;20029;-54
2023/03/23 01:34:31;;;;;;;4.25;3.20;;;;;;;7.25;50.38;99524.16;5015746;28;20420;-56
2023/03/23 01:36:57;;;;;;;4.00;3.03;;;;;;;7.30;50.38;99522.88;5015298;28;20037;-56
2023/03/23 01:39:23;;;;;;;3.92;3.17;;;;;;;7.27;50.58;99520.44;5015817;28;20052;-55
2023/03/23 01:41:48;;;;;;;5.43;3.30;;;;;;;7.23;50.75;99512.75;5016612;28;20042;-55
2023/03/23 01:44:16;;;;;;;4.07;3.10;;;;;;;7.23;50.59;99510.09;5015902;28;20030;-52
2023/03/23 01:46:43;;;;;;;4.32;3.10;;;;;;;7.21;50.60;99506.69;5016177;28;20040;-53
2023/03/23 01:49:13;;;;;;;4.13;3.25;;;;;;;7.15;50.77;99505.31;5015968;28;20041;-54
2023/03/23 01:51:46;;;;;;;3.80;2.97;;;;;;;7.22;50.93;99508.41;5015476;28;20037;-54
2023/03/23 01:54:19;;;;;;;3.33;2.97;;;;;;;7.17;50.99;99506.06;5015698;28;20030;-53
2023/03/23 01:56:52;;;;;;;4.10;3.20;;;;;;;7.16;50.84;99512.34;5014476;28;20040;-53
2023/03/23 01:59:20;;;;;;;4.95;3.20;;;;;;;7.11;51.01;99519.81;5014577;28;20113;-64
2023/03/23 02:01:46;;;;;;;4.38;3.08;;;;;;;7.01;51.51;99498.31;5015990;28;20041;-54
2023/03/23 02:04:16;;;;;;;5.25;2.88;;;;;;;7.12;51.40;99513.53;5015517;28;20029;-51
2023/03/23 02:06:44;;;;;;;3.25;2.70;;;;;;;7.09;51.34;99500.44;5015070;28;20124;-50
2023/03/23 02:09:13;;;;;;;3.63;3.05;;;;;;;7.08;50.88;99499.56;5014320;28;20029;-55
2023/03/23 02:11:39;;;;;;;6.88;3.00;;;;;;;7.03;51.35;99497.25;5015247;28;20033;-56
2023/03/23 02:14:05;;;;;;;4.45;3.33;;;;;;;7.06;51.43;99493.50;5015246;28;20034;-52
2023/03/23 02:16:43;;;;;;;4.53;3.05;;;;;;;7.09;51.40;99511.09;5015356;28;20445;-60
2023/03/23 02:19:40;;;;;;;4.60;3.00;;;;;;;7.15;51.26;99494.66;5015510;28;20038;-55
2023/03/23 02:22:14;;;;;;;4.72;3.20;;;;;;;7.11;51.47;99506.50;5014103;28;20046;-53
2023/03/23 02:24:59;;;;;;;4.22;3.10;;;;;;;7.11;51.27;99506.50;5014050;28;20068;-50
2023/03/23 02:27:41;;;;;;;4.95;3.58;;;;;;;7.03;51.73;99488.41;5015743;28;20022;-51
2023/03/23 02:30:31;;;;;;;6.53;3.60;;;;;;;6.99;51.68;99486.94;5034711;28;20041;-53
2023/03/23 02:33:05;;;;;;;4.82;2.78;;;;;;;6.85;51.43;99469.28;5034564;28;20037;-53
2023/03/23 02:35:36;;;;;;;4.28;3.17;;;;;;;6.78;52.19;99481.34;5034360;28;20037;-50
2023/03/23 02:38:08;;;;;;;5.05;3.53;;;;;;;6.67;52.50;99484.75;5034433;28;20134;-54
2023/03/23 02:40:40;;;;;;;4.05;3.10;;;;;;;6.56;52.27;99481.00;5034186;28;20033;-53
2023/03/23 02:43:13;;;;;;;4.18;2.90;;;;;;;6.55;52.97;99486.44;5024300;28;20357;-54
2023/03/23 02:45:41;;;;;;;6.55;3.22;;;;;;;6.44;53.08;99485.38;5014856;28;20437;-53
2023/03/23 02:48:09;;;;;;;5.20;3.30;;;;;;;6.39;53.19;99484.84;5022490;28;20040;-49
2023/03/23 02:50:36;;;;;;;6.50;3.15;;;;;;;6.40;53.31;99493.69;5034838;28;20071;-50
2023/03/23 02:53:06;;;;;;;5.88;3.28;;;;;;;6.40;53.35;99491.03;5033353;28;20030;-51
2023/03/23 02:55:32;;;;;;;5.05;3.03;;;;;;;6.46;53.01;99501.22;5034225;28;20033;-51
2023/03/23 02:58:01;;;;;;;4.75;2.78;;;;;;;6.25;53.68;99448.56;5033748;28;20106;-52
2023/03/23 03:00:28;;;;;;;4.25;3.05;;;;;;;6.47;53.44;99494.97;5034231;28;20026;-49
2023/03/23 03:02:56;;;;;;;4.85;3.30;;;;;;;6.47;53.48;99493.13;5032580;28;20463;-52
2023/03/23 03:05:26;;;;;;;4.65;3.03;;;;;;;6.50;53.22;99496.53;5034135;28;20037;-67
2023/03/23 03:08:42;;;;;;;6.45;3.47;;;;;;;6.61;53.17;99491.34;5027072;28;20030;-66
2023/03/23 03:11:11;;;;;;;4.70;3.67;;;;;;;6.53;53.13;99489.19;5031817;28;20087;-51
2023/03/23 03:13:50;;;;;;;6.75;3.70;;;;;;;6.55;53.13;99486.44;5032123;28;20037;-57
2023/03/23 03:16:37;;;;;;;4.13;3.22;;;;;;;6.46;53.28;99483.44;5019451;28;20041;-54
2023/03/23 03:19:15;;;;;;;5.15;3.55;;;;;;;6.43;53.84;99477.50;5013218;28;20045;-52
2023/03/23 03:21:43;;;;;;;4.45;3.72;;;;;;;6.41;53.43;99477.59;5013653;28;20041;-51
2023/03/23 03:24:11;;;;;;;4.40;3.38;;;;;;;6.33;54.01;99487.94;5013606;28;20099;-54
2023/03/23 03:26:47;;;;;;;5.75;3.55;;;;;;;6.36;54.09;99473.56;5013866;28;20499;-50
2023/03/23 03:29:23;;;;;;;4.85;3.80;;;;;;;6.30;54.45;99477.50;5031131;28;20315;-55
2023/03/23 03:31:50;;;;;;;;;;;;;;;6.51;52.99;99471.63;5033486;28;20044;-53
2023/03/23 03:34:17;;;;;;;4.85;3.38;;;;;;;6.17;53.97;99483.66;5033423;28;19917;-55
2023/03/23 03:36:48;;;;;;;5.50;4.18;;;;;;;6.03;54.78;99460.66;5032228;28;20879;-55
2023/03/23 03:39:15;;;;;;;8.38;3.38;;;;;;;5.92;55.32;99472.94;5032889;28;20065;-50
2023/03/23 03:41:41;;;;;;;6.40;3.60;;;;;;;5.91;55.69;99466.78;5033401;28;20052;-53
2023/03/23 03:44:08;;;;;;;4.82;3.65;;;;;;;5.84;56.04;99476.09;5033244;28;20399;-50
2023/03/23 03:46:35;;;;;;;6.05;3.67;;;;;;;5.82;55.97;99478.00;5031864;28;20047;-52
2023/03/23 03:49:03;;;;;;;4.97;3.88;;;;;;;5.81;56.09;99485.16;5016703;28;20124;-55
2023/03/23 03:51:29;;;;;;;6.55;3.85;;;;;;;5.74;56.32;99462.56;5013255;28;20058;-52
2023/03/23 03:53:56;;;;;;;6.75;3.97;;;;;;;5.73;56.28;99460.88;5012919;28;20040;-61
2023/03/23 03:56:22;;;;;;;5.57;4.18;;;;;;;5.73;56.16;99467.06;5013507;28;20033;-51
2023/03/23 03:58:49;;;;;;;5.03;3.85;;;;;;;5.76;56.35;99463.31;5014343;28;20041;-54
2023/03/23 04:01:16;;;;;;;5.63;4.00;;;;;;;5.69;56.40;99454.06;5030881;28;20029;-54
2023/03/23 04:03:42;;;;;;;6.88;4.22;;;;;;;5.88;56.26;99470.50;5042181;28;20384;-55
2023/03/23 04:06:08;;;;;;;5.53;4.00;;;;;;;5.87;56.58;99459.94;5044223;28;20040;-56
2023/03/23 04:08:35;;;;;;;5.05;4.00;;;;;;;6.11;56.09;99460.16;5041111;28;20260;-52
2023/03/23 04:11:01;;;;;;;5.75;3.97;;;;;;;7.36;53.21;99459.47;5042634;28;20033;-51
2023/03/23 04:13:26;;;;;;;5.93;3.97;;;;;;;9.24;48.27;99454.03;5042201;28;20033;-58
2023/03/23 04:15:52;;;;;;;5.35;4.00;;;;;;;10.69;44.56;99440.22;5037904;28;20060;-56
2023/03/23 04:18:19;;;;;;;7.05;3.95;;;;;;;11.88;42.05;99434.09;5023312;28;20097;-59
2023/03/23 04:20:47;;;;;;;5.57;4.10;;;;;;;13.00;39.55;99444.28;5044340;28;20036;-55
2023/03/23 04:23:19;;;;;;;7.53;3.97;;;;;;;14.01;37.78;99446.00;5038119;28;20137;-55
2023/03/23 04:25:57;;;;;;;7.32;3.70;;;;;;;14.91;36.44;99446.75;5022741;28;20061;-55
2023/03/23 04:28:24;;;;;;;8.10;3.80;;;;;;;15.54;34.52;99436.53;5021914;28;20033;-56
2023/03/23 04:30:55;;;;;;;6.00;3.90;;;;;;;16.05;33.47;99422.94;5021746;28;20033;-54
2023/03/23 04:33:24;;;;;;;5.60;4.03;;;;;;;16.94;31.86;99438.25;5020560;28;20060;-60
2023/03/23 04:35:52;;;;;;;6.28;4.20;;;;;;;17.70;30.78;99438.75;5023076;28;20400;-55
2023/03/23 04:38:20;;;;;;;6.15;4.63;;;;;;;18.36;29.62;99449.91;5020949;28;20088;-51
2023/03/23 04:40:47;;;;;;;6.38;4.70;;;;;;;19.03;28.64;99451.94;5021892;28;20375;-54
2023/03/23 04:43:12;;;;;;;6.15;4.97;;;;;;;19.47;27.68;99433.88;5028923;28;20044;-54
2023/03/23 04:45:41;;;;;;;6.03;4.60;;;;;;;20.01;26.99;99445.31;5032574;28;20037;-55
2023/03/23 04:48:07;;;;;;;7.13;4.53;;;;;;;20.58;26.15;99440.75;5032500;28;20033;-61
2023/03/23 04:50:34;;;;;;;6.85;5.40;;;;;;;20.87;25.31;99406.22;5031106;28;20116;-49
2023/03/23 04:53:04;;;;;;;7.18;4.70;;;;;;;21.54;24.79;99449.19;5032133;28;20423;-53
2023/03/23 04:55:35;;;;;;;6.15;5.28;;;;;;;22.18;23.69;99441.53;5023497;28;20026;-54
2023/03/23 04:58:02;;;;;;;8.75;5.57;;;;;;;22.71;22.98;99450.78;5021138;28;20038;-57
2023/03/23 05:00:28;;;;;;;7.57;5.40;;;;;;;23.36;22.30;99433.56;5021116;28;20440;-60
2023/03/23 05:02:55;;;;;;;7.43;5.15;;;;;;;23.88;21.67;99431.78;5023449;28;20108;-51
2023/03/23 05:05:22;;;;;;;7.15;5.30;;;;;;;24.40;21.03;99438.97;5022672;28;20416;-54
2023/03/23 05:07:47;;;;;;;7.55;5.82;;;;;;;25.20;19.97;99437.28;5031825;28;20056;-51
2023/03/23 05:10:14;;;;;;;7.25;5.53;;;;;;;25.64;19.34;99435.25;5031914;28;20513;-54
2023/03/23 05:12:39;;;;;;;6.22;5.63;;;;;;;26.21;18.97;99442.22;5030140;28;20106;-51
2023/03/23 05:15:06;;;;;;;6.35;5.43;;;;;;;26.94;18.42;99452.97;5014668;28;20355;-49
2023/03/23 05:17:33;;;;;;;8.90;5.75;;;;;;;27.64;17.35;99439.28;5031147;28;20033;-50
2023/03/23 05:20:00;;;;;;;6.65;5.72;;;;;;;28.20;16.92;99424.03;5032264;28;20038;-59
2023/03/23 05:22:32;;;;;;;6.00;5.38;;;;;;;28.71;16.44;99440.50;5032030;28;20033;-53
2023/03/23 05:24:58;;;;;;;6.85;5.82;;;;;;;28.99;16.07;99433.16;5031459;28;20038;-54
2023/03/23 05:27:27;;;;;;;7.00;5.68;;;;;;;29.38;15.59;99440.53;5031663;28;20044;-50
2023/03/23 05:29:53;;;;;;;9.25;5.85;;;;;;;29.52;15.50;99446.50;5031924;28;20110;-51
2023/03/23 05:32:19;;;;;;;9.43;5.78;;;;;;;29.78;15.27;99438.47;5032014;28;20480;-53
2023/03/23 05:34:46;;;;;;;6.68;5.85;;;;;;;29.82;14.97;99439.63;5013971;28;20041;-51
2023/03/23 05:37:13;;;;;;;8.68;5.72;;;;;;;30.22;14.59;99445.78;5012115;28;20050;-50
2023/03/23 05:39:39;;;;;;;8.68;6.05;;;;;;;30.38;14.21;99438.44;5012788;28;20048;-54
2023/03/23 05:42:06;;;;;;;8.95;5.72;;;;;;;30.34;14.27;99420.75;5014276;28;20112;-53
2023/03/23 05:44:31;;;;;;;6.57;5.78;;;;;;;30.72;14.18;99440.06;5015615;28;20029;-53
2023/03/23 05:46:57;;;;;;;6.18;5.43;;;;;;;31.29;13.54;99432.06;5014571;28;20033;-51
2023/03/23 05:49:24;;;;;;;6.07;5.45;;;;;;;31.90;13.24;99412.00;5015343;28;20108;-52
2023/03/23 05:51:49;;;;;;;8.68;5.78;;;;;;;32.59;12.64;99430.25;5014812;28;20044;-56
2023/03/23 05:54:15;;;;;;;7.90;5.78;;;;;;;32.84;12.06;99436.84;5015665;28;20117;-55
2023/03/23 05:56:41;;;;;;;10.20;6.60;;;;;;;33.03;12.39;99401.84;5015316;28;20058;-57
2023/03/23 05:59:07;;;;;;;7.97;5.65;;;;;;;33.76;11.58;99423.66;5015393;28;20030;-56
2023/03/23 06:01:32;;;;;;;10.35;5.95;;;;;;;33.93;11.42;99435.19;5023665;28;20029;-57
2023/03/23 06:03:58;;;;;;;11.70;5.28;;;;;;;34.20;11.06;99421.94;5027136;28;20029;-52
2023/03/23 06:06:29;;;;;;;6.50;5.80;;;;;;;34.68;11.02;99435.09;5021994;28;20070;-57
2023/03/23 06:08:56;;;;;;;7.65;6.18;;;;;;;34.83;10.74;99427.72;5024476;28;20029;-50
2023/03/23 06:11:22;;;;;;;8.02;6.20;;;;;;;35.10;10.92;99423.53;5025742;28;20144;-56
2023/03/23 06:13:48;;;;;;;7.22;5.72;;;;;;;35.40;10.53;99427.84;5019825;28;20034;-53
2023/03/23 06:16:14;;;;;;;8.48;6.63;;;;;;;35.70;9.82;99405.47;5014731;28;20021;-54
2023/03/23 06:18:40;;;;;;;7.47;6.15;;;;;;;36.05;9.95;99415.22;5014402;28;20092;-54
2023/03/23 06:21:07;;;;;;;9.68;6.43;;;;;;;36.37;9.77;99426.63;5014273;28;20033;-60
2023/03/23 06:23:34;;;;;;;7.10;6.40;;;;;;;36.41;9.67;99401.75;5021934;28;20034;-64
2023/03/23 06:26:03;;;;;;;9.23;6.63;;;;;;;36.75;9.42;99400.53;5020470;28;20495;-58
2023/03/23 06:28:29;;;;;;;10.30;6.82;;;;;;;36.70;9.41;99414.59;5025343;28;20022;-53
2023/03/23 06:30:54;;;;;;;7.75;6.30;;;;;;;36.59;9.31;99414.81;5024125;28;20100;-55
2023/03/23 06:33:20;;;;;;;7.65;6.93;;;;;;;36.87;9.51;99412.03;5032332;28;20113;-57
2023/03/23 06:35:46;;;;;;;8.93;7.72;;;;;;;37.15;9.02;99420.38;5040879;28;20420;-57
2023/03/23 06:38:12;;;;;;;11.55;7.07;;;;;;;37.05;8.83;99413.06;5054514;28;20537;-53
2023/03/23 06:40:37;;;;;;;7.97;6.30;;;;;;;36.89;9.30;99406.13;5047867;28;20110;-55
2023/03/23 06:43:06;;;;;;;7.45;6.57;;;;;;;37.33;9.27;99410.22;5024255;28;20038;-53
2023/03/23 06:45:31;;;;;;;10.45;7.05;;;;;;;37.57;9.13;99409.13;5022944;28;20034;-55
2023/03/23 06:47:57;;;;;;;12.02;7.30;;;;;;;37.61;8.81;99404.56;5025284;28;20448;-55
2023/03/23 06:50:22;;;;;;;11.18;7.72;;;;;;;37.82;8.42;99400.47;5024403;28;20450;-52
2023/03/23 06:52:49;;;;;;;17.42;8.13;;;;;;;37.85;8.86;99402.63;5025604;28;20088;-57
2023/03/23 06:55:16;;;;;;;13.68;7.55;;;;;;;37.84;8.95;99379.44;5020787;28;20033;-56
2023/03/23 06:57:42;;;;;;;9.05;6.63;;;;;;;38.10;8.81;99403.16;5021715;28;20095;-58
2023/03/23 07:00:12;;;;;;;22.73;7.93;;;;;;;38.32;8.54;99405.06;5021356;28;20025;-61
2023/03/23 07:02:38;;;;;;;8.88;6.85;;;;;;;38.43;8.62;99400.84;5023153;28;20036;-53
2023/03/23 07:05:04;;;;;;;8.20;6.97;;;;;;;38.27;8.08;99375.28;5028946;28;20448;-51
2023/03/23 07:07:30;;;;;;;8.48;7.63;;;;;;;38.48;8.28;99403.53;5020903;28;20029;-56
2023/03/23 07:09:55;;;;;;;9.40;6.25;;;;;;;38.16;8.59;99388.72;5021436;28;20026;-57
2023/03/23 07:12:22;;;;;;;11.30;6.95;;;;;;;37.57;8.98;99367.25;5023159;28;20034;-58
2023/03/23 07:14:47;;;;;;;11.38;7.03;;;;;;;37.21;8.89;99384.81;5020638;28;20456;-61
2023/03/23 07:17:14;;;;;;;10.98;6.80;;;;;;;37.02;9.11;99394.16;5023118;28;20060;-64
2023/03/23 07:19:40;;;;;;;11.93;6.75;;;;;;;37.04;9.30;99382.69;5021927;28;20097;-58
2023/03/23 07:22:06;;;;;;;13.57;6.65;;;;;;;36.67;9.60;99388.19;5023325;28;20116;-60
2023/03/23 07:24:32;;;;;;;9.45;6.45;;;;;;;36.25;9.48;99385.31;5023633;28;20080;-56
2023/03/23 07:26:58;;;;;;;8.13;6.88;;;;;;;36.32;9.27;99382.13;5022551;28;20029;-56
2023/03/23 07:29:23;;;;;;;8.45;6.22;;;;;;;36.55;9.51;99360.81;5023259;28;20105;-58
2023/03/23 07:31:49;;;;;;;8.32;6.75;;;;;;;37.05;9.14;99379.56;5034645;28;20108;-53
2023/03/23 07:34:14;;;;;;;10.85;6.72;;;;;;;37.51;8.59;99381.69;5027766;28;20113;-57
2023/03/23 07:36:40;;;;;;;9.60;6.70;;;;;;;37.85;8.78;99385.84;5032980;28;20068;-61
2023/03/23 07:39:06;;;;;;;10.63;7.28;;;;;;;38.14;8.52;99382.63;5023547;28;20052;-63
2023/03/23 07:41:32;;;;;;;9.63;6.40;;;;;;;37.88;8.49;99374.03;5023742;28;20053;-55
2023/03/23 07:43:58;;;;;;;14.00;6.90;;;;;;;37.31;8.48;99372.59;5019850;28;20420;-59
2023/03/23 07:46:23;;;;;;;10.13;6.07;;;;;;;36.72;9.19;99349.03;5022178;28;20109;-58
2023/03/23 07:48:49;;;;;;;11.98;6.40;;;;;;;36.83;8.85;99362.75;5025986;28;20034;-60
2023/03/23 07:51:18;;;;;;;10.35;6.07;;;;;;;36.86;8.79;99356.53;5017571;28;20429;-60
2023/03/23 07:53:44;;;;;;;7.13;5.85;;;;;;;36.77;8.81;99353.66;5024141;28;20423;-59
2023/03/23 07:56:12;;;;;;;8.63;6.22;;;;;;;36.50;8.91;99358.06;5022918;28;20029;-60
2023/03/23 07:58:37;;;;;;;8.90;5.65;;;;;;;35.42;9.58;99344.03;5002601;28;20033;-57
2023/03/23 08:01:03;;;;;;;13.57;5.85;;;;;;;34.60;10.27;99346.81;5021481;28;20527;-61
2023/03/23 08:03:29;;;;;;;7.53;5.80;;;;;;;33.36;11.05;99349.53;5021154;28;20037;-56
2023/03/23 08:05:58;;;;;;;6.85;5.35;;;;;;;31.35;12.40;99345.25;5020984;28;20035;-56
2023/03/23 08:08:24;;;;;;;8.02;5.10;;;;;;;28.71;14.09;99344.09;5020466;28;20068;-60
2023/03/23 08:10:50;;;;;;;10.82;5.93;;;;;;;26.36;16.30;99356.66;5022534;28;20053;-58
2023/03/23 08:13:16;;;;;;;9.25;5.97;;;;;;;24.07;18.32;99353.41;5022673;28;20082;-52
2023/03/23 08:15:43;;;;;;;13.52;6.30;;;;;;;22.11;20.46;99367.09;5020839;28;20025;-54
2023/03/23 08:18:09;;;;;;;7.18;6.25;;;;;;;20.67;22.37;99350.84;5022778;28;20379;-56
2023/03/23 08:20:35;;;;;;;8.02;5.80;;;;;;;19.57;23.88;99342.13;5017862;28;20053;-60
2023/03/23 08:23:02;;;;;;;16.55;6.95;;;;;;;18.66;25.20;99348.78;5014972;28;20107;-55
2023/03/23 08:25:31;;;;;;;19.27;7.20;;;;;;;17.87;26.72;99353.66;5015765;28;20104;-54
2023/03/23 08:27:57;;;;;;;12.50;7.57;;;;;;;17.30;27.45;99350.38;5012628;28;20093;-57
2023/03/23 08:30:25;;;;;;;13.48;7.18;;;;;;;16.71;28.14;99335.47;5023716;28;20029;-57
2023/03/23 08:32:52;;;;;;;9.18;7.20;;;;;;;16.40;28.72;99349.78;5032089;28;20041;-52
2023/03/23 08:35:19;;;;;;;10.13;7.43;;;;;;;16.10;29.50;99352.19;5028175;28;20029;-54
2023/03/23 08:37:45;;;;;;;10.57;7.10;;;;;;;15.86;29.76;99334.16;5022129;28;20107;-49
2023/03/23 08:40:13;;;;;;;15.85;7.40;;;;;;;15.75;30.17;99332.66;5011607;28;20045;-54
2023/03/23 08:42:43;;;;;;;13.48;7.65;;;;;;;15.66;30.22;99318.31;5029691;28;20115;-53
2023/03/23 08:45:11;;;;;;;11.85;7.50;;;;;;;15.52;30.81;99322.53;5032265;28;20033;-53
2023/03/23 08:47:37;;;;;;;10.45;7.28;;;;;;;15.41;30.76;99314.75;5032191;28;20044;-61
2023/03/23 08:50:08;;;;;;;18.38;7.65;;;;;;;15.39;30.66;99306.84;5031863;28;20045;-57
2023/03/23 08:52:34;;;;;;;11.77;7.90;;;;;;;15.20;31.63;99306.16;5032095;28;20073;-59
2023/03/23 08:54:59;;;;;;;11.85;7.55;;;;;;;15.01;31.76;99284.91;5023885;28;20057;-57
2023/03/23 08:57:26;;;;;;;10.80;6.97;;;;;;;14.83;31.94;99268.88;5011855;28;20096;-55
2023/03/23 08:59:54;;;;;;;12.43;7.30;;;;;;;14.84;31.91;99284.03;5021768;28;20029;-52
2023/03/23 09:02:20;;;;;;;16.75;7.97;;;;;;;14.82;31.77;99286.88;5014335;28;20052;-57
2023/03/23 09:04:45;;;;;;;15.27;7.60;;;;;;;14.67;32.18;99288.50;5022015;28;21289;-56
2023/03/23 09:07:14;;;;;;;9.73;7.03;;;;;;;14.49;32.79;99286.75;5013727;28;20505;-50
2023/03/23 09:09:40;;;;;;;9.93;6.93;;;;;;;14.34;33.23;99291.91;5011653;28;20041;-54
2023/03/23 09:12:08;;;;;;;8.10;6.78;;;;;;;14.27;33.24;99282.81;5012283;28;20034;-57
2023/03/23 09:14:34;;;;;;;17.77;7.28;;;;;;;14.28;33.51;99279.09;5013392;28;20041;-57
2023/03/23 09:17:00;;;;;;;26.02;7.68;;;;;;;14.30;33.24;99272.53;5054337;28;20032;-52
2023/03/23 09:19:26;;;;;;;12.93;7.28;;;;;;;14.24;33.57;99272.38;5044891;28;20092;-51
2023/03/23 09:21:52;;;;;;;10.77;7.28;;;;;;;14.25;33.64;99274.03;5033911;28;20029;-52
2023/03/23 09:24:18;;;;;;;13.60;7.07;;;;;;;14.33;33.34;99263.31;5030888;28;20140;-54
2023/03/23 09:26:45;;;;;;;12.00;6.72;;;;;;;14.37;33.54;99269.22;5032806;28;20044;-50
2023/03/23 09:29:11;;;;;;;12.18;7.18;;;;;;;14.39;33.23;99265.34;5035321;28;20026;-52
2023/03/23 09:31:36;;;;;;;8.75;6.85;;;;;;;14.43;33.00;99260.47;5016962;28;20111;-60
2023/03/23 09:34:03;;;;;;;12.75;5.90;;;;;;;14.32;33.21;99256.22;5017571;28;20441;-53
2023/03/23 09:36:30;;;;;;;10.98;6.63;;;;;;;14.20;33.46;99244.91;5039726;28;20029;-52
2023/03/23 09:38:57;;;;;;;8.90;6.18;;;;;;;14.18;33.85;99246.91;5037514;28;20111;-56
2023/03/23 09:41:55;;;;;;;12.10;6.80;;;;;;;14.28;32.83;99242.25;5019292;28;20527;-54
2023/03/23 09:44:49;;;;;;;13.77;6.75;;;;;;;14.45;32.76;99232.34;5029882;28;20045;-64
2023/03/23 09:47:33;;;;;;;17.42;7.28;;;;;;;14.51;32.86;99230.88;5054967;28;20029;-57
2023/03/23 09:50:12;;;;;;;11.02;6.82;;;;;;;14.61;32.94;99217.25;5053052;28;20033;-52
2023/03/23 09:52:45;;;;;;;9.68;6.35;;;;;;;14.65;32.70;99226.69;5039248;28;20025;-57
2023/03/23 09:55:14;;;;;;;9.70;5.88;;;;;;;14.58;33.03;99225.66;5017588;28;20369;-53
2023/03/23 09:58:16;;;;;;;9.10;5.70;;;;;;;14.59;32.80;99213.88;5015157;28;20061;-55
2023/03/23 10:01:04;;;;;;;13.05;5.90;;;;;;;14.60;32.79;99207.50;5025940;28;20046;-56
2023/03/23 10:03:37;;;;;;;12.18;6.03;;;;;;;14.41;33.23;99209.47;5027390;28;20510;-53
2023/03/23 10:06:04;;;;;;;10.98;5.85;;;;;;;14.34;33.35;99206.56;5034531;28;20432;-55
2023/03/23 10:08:34;;;;;;;7.68;5.70;;;;;;;14.35;33.13;99199.34;5035081;28;20095;-53
2023/03/23 10:11:04;;;;;;;7.18;5.63;;;;;;;14.39;33.34;99214.16;5025005;28;20025;-52
2023/03/23 10:13:44;;;;;;;14.80;5.95;;;;;;;14.46;32.83;99206.28;5014827;28;20191;-56
2023/03/23 10:16:17;;;;;;;6.30;5.35;;;;;;;14.48;33.12;99188.97;5014614;28;20041;-57
2023/03/23 10:18:51;;;;;;;12.50;5.65;;;;;;;14.49;32.85;99193.34;5014836;28;20037;-60
2023/03/23 10:21:21;;;;;;;8.80;5.32;;;;;;;14.40;33.33;99194.31;5034243;28;20056;-55
2023/03/23 10:23:58;;;;;;;5.90;5.13;;;;;;;14.32;32.87;99175.44;5030554;28;20761;-57
2023/03/23 10:26:34;;;;;;;9.52;5.13;;;;;;;14.40;33.39;99180.84;5013081;28;20026;-52
2023/03/23 10:29:18;;;;;;;7.95;5.88;;;;;;;14.60;32.87;99186.78;5014450;28;20124;-54
2023/03/23 10:31:56;;;;;;;6.35;5.47;;;;;;;14.63;32.76;99180.22;5014842;28;20061;-53
2023/03/23 10:34:54;;;;;;;8.05;5.47;;;;;;;14.77;32.37;99181.44;5014522;28;20030;-56
2023/03/23 10:37:53;;;;;;;8.60;5.40;;;;;;;14.87;32.24;99176.75;5015435;28;20061;-59
2023/03/23 10:40:23;;;;;;;6.47;5.32;;;;;;;14.85;32.67;99183.31;5025858;28;20096;-56
2023/03/23 10:42:49;;;;;;;8.57;5.28;;;;;;;14.84;32.51;99181.63;5032224;28;20045;-56
2023/03/23 10:45:27;;;;;;;8.38;5.50;;;;;;;14.86;32.53;99183.16;5033936;28;20041;-55
2023/03/23 10:47:58;;;;;;;9.27;5.30;;;;;;;14.97;32.25;99192.75;5033984;28;20037;-54
2023/03/23 10:50:31;;;;;;;7.47;5.18;;;;;;;15.02;32.26;99178.75;5033607;28;20053;-55
2023/03/23 10:52:59;;;;;;;9.30;4.97;;;;;;;15.04;32.13;99193.75;5032815;28;20120;-55
2023/03/23 10:55:37;;;;;;;8.02;4.88;;;;;;;14.97;31.99;99159.56;5026752;28;20108;-53
2023/03/23 10:58:10;;;;;;;8.60;5.28;;;;;;;15.19;31.90;99184.97;5013864;28;20029;-55
2023/03/23 11:00:43;;;;;;;8.10;5.25;;;;;;;15.31;31.79;99183.63;5022405;28;20443;-58
2023/03/23 11:03:15;;;;;;;15.38;5.18;;;;;;;15.43;31.47;99194.06;5022957;28;20025;-55
2023/03/23 11:05:59;;;;;;;12.18;4.70;;;;;;;15.57;31.16;99184.44;5023717;28;20112;-54
2023/03/23 11:08:32;;;;;;;10.45;5.07;;;;;;;15.53;31.16;99181.22;5023331;28;20040;-56
2023/03/23 11:11:09;;;;;;;10.75;5.57;;;;;;;15.54;31.32;99171.25;5026672;28;20029;-57
2023/03/23 11:13:42;;;;;;;13.00;5.40;;;;;;;15.65;31.07;99187.09;5033651;28;20045;-50
2023/03/23 11:16:09;;;;;;;6.95;5.07;;;;;;;15.56;30.61;99170.09;5033658;28;20448;-50
2023/03/23 11:18:39;;;;;;;13.77;5.65;;;;;;;15.54;31.17;99187.47;5030629;28;20048;-53
2023/03/23 11:21:07;;;;;;;7.82;4.70;;;;;;;15.41;31.17;99177.19;5031921;28;20037;-55
2023/03/23 11:23:41;;;;;;;11.23;5.53;;;;;;;15.33;31.46;99176.22;5013920;28;20037;-55
2023/03/23 11:26:29;;;;;;;10.48;5.10;;;;;;;15.48;31.17;99179.03;5018918;28;20029;-55
2023/03/23 11:29:10;;;;;;;8.90;5.13;;;;;;;15.38;31.49;99151.44;5033230;28;20040;-56
2023/03/23 11:31:41;;;;;;;8.35;4.80;;;;;;;15.48;31.08;99153.94;5017864;28;20029;-52
2023/03/23 11:34:13;;;;;;;8.35;4.93;;;;;;;15.55;31.01;99145.97;5013531;28;20141;-53
2023/03/23 11:37:03;;;;;;;7.10;4.80;;;;;;;15.87;30.61;99188.22;5013257;28;20372;-58
2023/03/23 11:39:34;;;;;;;10.95;5.05;;;;;;;15.69;31.15;99183.03;5012824;28;20054;-54
2023/03/23 11:42:11;;;;;;;9.20;4.55;;;;;;;15.68;30.92;99180.53;5025956;28;20899;-56
2023/03/23 11:44:42;;;;;;;9.18;4.32;;;;;;;15.76;30.81;99191.28;5032125;28;20428;-54
2023/03/23 11:47:13;;;;;;;6.63;5.03;;;;;;;15.78;31.08;99194.66;5013272;28;20026;-60